createdAt,value
2023-02-02T00:02:36.673Z,4.60
2023-02-02T00:05:58.254Z,4.60
2023-02-02T00:09:20.471Z,4.60
2023-02-02T00:12:43.440Z,4.60
2023-02-02T00:16:19.983Z,4.60
2023-02-02T00:19:41.622Z,4.60
2023-02-02T00:23:03.395Z,4.60
2023-02-02T00:26:25.410Z,4.60
2023-02-02T00:29:48.384Z,4.60
2023-02-02T00:33:09.992Z,4.60
2023-02-02T00:36:31.598Z,4.60
2023-02-02T00:39:53.215Z,4.70
2023-02-02T00:43:14.819Z,4.70
2023-02-02T00:46:40.526Z,4.60
2023-02-02T00:50:02.225Z,4.60
2023-02-02T00:53:23.894Z,4.60
2023-02-02T00:56:45.546Z,4.50
2023-02-02T01:00:08.214Z,4.60
2023-02-02T01:03:31.177Z,4.50
2023-02-02T01:06:52.800Z,4.50
2023-02-02T01:10:15.385Z,4.50
2023-02-02T01:13:37.007Z,4.50
2023-02-02T01:16:58.682Z,4.50
2023-02-02T01:20:21.624Z,4.50
2023-02-02T01:23:43.351Z,4.50
2023-02-02T01:27:05.028Z,4.50
2023-02-02T01:30:26.662Z,4.50
2023-02-02T01:33:48.870Z,4.50
2023-02-02T01:37:11.811Z,4.50
2023-02-02T01:40:33.394Z,4.40
2023-02-02T01:43:56.646Z,4.30
2023-02-02T01:47:19.293Z,4.20
2023-02-02T01:50:40.942Z,4.20
2023-02-02T01:54:05.079Z,4.10
2023-02-02T01:57:30.329Z,4.20
2023-02-02T02:00:52.324Z,4.20
2023-02-02T02:04:14.132Z,4.10
2023-02-02T02:07:35.743Z,4.20
2023-02-02T02:10:58.798Z,4.20
2023-02-02T02:14:21.152Z,4.20
2023-02-02T02:17:55.835Z,4.20
2023-02-02T02:21:32.348Z,4.30
2023-02-02T02:25:08.777Z,4.30
2023-02-02T02:28:48.454Z,4.30
2023-02-02T02:32:19.128Z,4.40
2023-02-02T02:35:42.614Z,4.40
2023-02-02T02:39:06.717Z,4.40
2023-02-02T02:42:30.391Z,4.40
2023-02-02T02:45:52.501Z,4.40
2023-02-02T02:49:15.680Z,4.40
2023-02-02T02:52:38.190Z,4.40
2023-02-02T02:56:05.015Z,4.40
2023-02-02T02:59:33.790Z,4.40
2023-02-02T03:02:57.912Z,4.50
2023-02-02T03:06:23.146Z,4.50
2023-02-02T03:09:45.536Z,4.50
2023-02-02T03:13:08.341Z,4.50
2023-02-02T03:16:29.953Z,4.50
2023-02-02T03:19:51.648Z,4.50
2023-02-02T03:23:14.887Z,4.50
2023-02-02T03:26:36.932Z,4.50
2023-02-02T03:29:58.825Z,4.50
2023-02-02T03:33:20.678Z,4.50
2023-02-02T03:36:42.284Z,4.60
2023-02-02T03:40:06.077Z,4.60
2023-02-02T03:43:27.750Z,4.60
2023-02-02T03:46:52.817Z,4.60
2023-02-02T03:50:14.682Z,4.70
2023-02-02T03:53:36.311Z,4.70
2023-02-02T03:56:59.269Z,4.70
2023-02-02T04:00:21.220Z,4.70
2023-02-02T04:03:42.906Z,4.70
2023-02-02T04:07:04.482Z,4.70
2023-02-02T04:10:26.107Z,4.70
2023-02-02T04:13:49.029Z,4.70
2023-02-02T04:17:10.637Z,4.70
2023-02-02T04:20:32.227Z,4.70
2023-02-02T04:23:53.840Z,4.70
2023-02-02T04:27:15.421Z,4.70
2023-02-02T04:30:38.389Z,4.70
2023-02-02T04:34:00.324Z,4.80
2023-02-02T04:37:21.934Z,4.80
2023-02-02T04:40:44.204Z,4.80
2023-02-02T04:44:05.930Z,4.80
2023-02-02T04:47:28.844Z,4.80
2023-02-02T04:50:50.425Z,4.80
2023-02-02T04:54:12.003Z,4.80
2023-02-02T04:57:33.652Z,4.80
2023-02-02T05:00:55.281Z,4.80
2023-02-02T05:04:18.271Z,4.80
2023-02-02T05:07:39.983Z,4.80
2023-02-02T05:11:05.586Z,4.80
2023-02-02T05:14:27.202Z,4.90
2023-02-02T05:17:49.159Z,4.90
2023-02-02T05:21:12.338Z,4.90
2023-02-02T05:24:34.333Z,4.90
2023-02-02T05:27:55.929Z,4.90
2023-02-02T05:31:18.062Z,4.90
2023-02-02T05:34:39.739Z,4.90
2023-02-02T05:38:02.660Z,4.90
2023-02-02T05:41:24.310Z,4.90
2023-02-02T05:44:45.938Z,5.00
2023-02-02T05:48:07.529Z,4.90
2023-02-02T05:51:29.880Z,4.90
2023-02-02T05:54:52.834Z,4.90
2023-02-02T05:58:14.440Z,4.90
2023-02-02T06:01:36.302Z,4.90
2023-02-02T06:04:57.873Z,4.90
2023-02-02T06:08:19.515Z,4.90
2023-02-02T06:11:42.781Z,4.90
2023-02-02T06:15:04.887Z,4.90
2023-02-02T06:18:26.500Z,4.90
2023-02-02T06:21:48.088Z,4.90
2023-02-02T06:25:09.739Z,4.80
2023-02-02T06:28:32.694Z,4.80
2023-02-02T06:31:54.558Z,4.80
2023-02-02T06:35:16.300Z,4.80
2023-02-02T06:38:37.890Z,4.80
2023-02-02T06:42:08.819Z,4.70
2023-02-02T06:45:38.547Z,4.70
2023-02-02T06:49:00.254Z,4.70
2023-02-02T06:52:21.842Z,4.70
2023-02-02T06:55:43.395Z,4.80
2023-02-02T06:59:04.990Z,4.80
2023-02-02T07:02:27.942Z,4.80
2023-02-02T07:05:49.555Z,4.80
2023-02-02T07:09:11.132Z,4.80
2023-02-02T07:12:32.710Z,4.80
2023-02-02T07:15:54.316Z,4.80
2023-02-02T07:19:17.267Z,4.80
2023-02-02T07:22:38.998Z,4.80
2023-02-02T07:26:01.172Z,4.80
2023-02-02T07:29:22.746Z,4.80
2023-02-02T07:32:46.268Z,4.70
2023-02-02T07:36:10.157Z,4.70
2023-02-02T07:39:31.763Z,4.70
2023-02-02T07:42:53.368Z,4.80
2023-02-02T07:46:15.155Z,4.70
2023-02-02T07:49:36.738Z,4.70
2023-02-02T07:52:59.817Z,4.80
2023-02-02T07:56:22.386Z,4.80
2023-02-02T07:59:44.063Z,4.80
2023-02-02T08:03:05.899Z,4.90
2023-02-02T08:06:28.211Z,4.90
2023-02-02T08:09:51.321Z,5.00
2023-02-02T08:13:12.977Z,5.10
2023-02-02T08:16:34.632Z,5.10
2023-02-02T08:19:56.230Z,5.10
2023-02-02T08:23:17.830Z,5.20
2023-02-02T08:26:40.834Z,5.30
2023-02-02T08:30:02.434Z,5.30
2023-02-02T08:33:24.146Z,5.40
2023-02-02T08:36:45.729Z,5.40
2023-02-02T08:40:08.297Z,5.50
2023-02-02T08:43:31.296Z,5.60
2023-02-02T08:46:53.078Z,5.70
2023-02-02T08:50:14.777Z,5.70
2023-02-02T08:53:36.361Z,5.90
2023-02-02T08:56:57.957Z,5.90
2023-02-02T09:00:21.481Z,5.90
2023-02-02T09:03:43.496Z,5.80
2023-02-02T09:07:05.083Z,5.60
2023-02-02T09:10:26.675Z,5.50
2023-02-02T09:13:49.353Z,5.50
2023-02-02T09:17:12.288Z,5.50
2023-02-02T09:20:33.877Z,5.50
2023-02-02T09:23:55.449Z,5.50
2023-02-02T09:27:17.528Z,5.60
2023-02-02T09:30:39.186Z,5.70
2023-02-02T09:34:02.673Z,5.70
2023-02-02T09:37:24.393Z,5.80
2023-02-02T09:40:46.065Z,5.90
2023-02-02T09:44:13.100Z,5.90
2023-02-02T09:47:58.951Z,6.00
2023-02-02T09:51:23.269Z,6.00
2023-02-02T09:54:46.513Z,6.10
2023-02-02T09:58:12.064Z,6.10
2023-02-02T10:01:34.387Z,6.00
2023-02-02T10:05:00.326Z,6.00
2023-02-02T10:08:34.739Z,5.90
2023-02-02T10:11:59.539Z,5.80
2023-02-02T10:15:24.787Z,5.70
2023-02-02T10:18:48.337Z,5.70
2023-02-02T10:22:12.155Z,5.60
2023-02-02T10:25:35.279Z,5.60
2023-02-02T10:29:05.232Z,5.60
2023-02-02T10:32:27.767Z,5.70
2023-02-02T10:35:53.029Z,5.90
2023-02-02T10:39:20.200Z,6.00
2023-02-02T10:42:50.550Z,6.10
2023-02-02T10:46:14.813Z,6.10
2023-02-02T10:49:37.160Z,6.10
2023-02-02T10:53:01.374Z,6.10
2023-02-02T10:56:26.745Z,6.10
2023-02-02T10:59:56.933Z,6.00
2023-02-02T11:03:27.913Z,5.90
2023-02-02T11:06:49.607Z,5.90
2023-02-02T11:10:11.170Z,5.70
2023-02-02T11:13:36.981Z,5.70
2023-02-02T11:17:04.504Z,5.70
2023-02-02T11:20:33.214Z,5.70
2023-02-02T11:23:56.022Z,5.80
2023-02-02T11:27:19.441Z,5.90
2023-02-02T11:30:41.043Z,5.90
2023-02-02T11:34:23.712Z,5.90
2023-02-02T11:37:59.793Z,5.90
2023-02-02T11:41:21.365Z,5.80
2023-02-02T11:44:44.465Z,5.80
2023-02-02T11:48:07.285Z,5.80
2023-02-02T11:51:29.722Z,5.80
2023-02-02T11:54:54.269Z,5.80
2023-02-02T11:58:18.234Z,5.80
2023-02-02T12:01:39.982Z,5.80
2023-02-02T12:05:19.623Z,5.80
2023-02-02T12:08:41.192Z,5.70
2023-02-02T12:12:06.923Z,5.70
2023-02-02T12:15:33.799Z,5.80
2023-02-02T12:19:00.639Z,5.80
2023-02-02T12:22:29.115Z,5.80
2023-02-02T12:25:55.834Z,5.80
2023-02-02T12:29:23.468Z,5.80
2023-02-02T12:32:49.889Z,5.80
2023-02-02T12:36:19.405Z,5.80
2023-02-02T12:39:47.557Z,5.90
2023-02-02T12:43:17.049Z,5.90
2023-02-02T12:46:49.567Z,6.10
2023-02-02T12:50:18.638Z,6.10
2023-02-02T12:54:32.244Z,6.20
2023-02-02T12:57:49.093Z,6.30
2023-02-02T13:01:16.349Z,6.30
2023-02-02T13:04:53.483Z,6.20
2023-02-02T13:08:16.623Z,6.10
2023-02-02T13:11:42.305Z,6.00
2023-02-02T13:15:06.169Z,6.00
2023-02-02T13:18:30.120Z,5.90
2023-02-02T13:21:52.706Z,5.80
2023-02-02T13:25:18.114Z,5.70
2023-02-02T13:28:43.273Z,5.70
2023-02-02T13:32:06.864Z,5.70
2023-02-02T13:35:31.491Z,5.60
2023-02-02T13:38:55.234Z,5.70
2023-02-02T13:42:22.443Z,5.60
2023-02-02T13:45:50.332Z,5.60
2023-02-02T13:49:15.634Z,5.60
2023-02-02T13:52:55.964Z,5.70
2023-02-02T13:56:24.949Z,5.70
2023-02-02T13:59:50.750Z,5.90
2023-02-02T14:03:25.304Z,6.00
2023-02-02T14:06:54.691Z,6.20
2023-02-02T14:10:22.083Z,6.20
2023-02-02T14:13:44.892Z,6.20
2023-02-02T14:17:07.374Z,6.20
2023-02-02T14:20:44.457Z,6.10
2023-02-02T14:24:33.530Z,6.00
2023-02-02T14:27:58.051Z,6.10
2023-02-02T14:31:37.864Z,6.20
2023-02-02T14:35:01.097Z,6.40
2023-02-02T14:38:26.946Z,6.40
2023-02-02T14:42:00.676Z,6.40
2023-02-02T14:45:26.741Z,6.30
2023-02-02T14:49:05.581Z,6.40
2023-02-02T14:52:28.263Z,6.40
2023-02-02T14:55:58.767Z,6.40
2023-02-02T14:59:22.839Z,6.40
2023-02-02T15:02:45.771Z,6.40
2023-02-02T15:06:14.438Z,6.30
2023-02-02T15:09:36.714Z,6.30
2023-02-02T15:13:02.959Z,6.30
2023-02-02T15:16:26.918Z,6.30
2023-02-02T15:19:52.127Z,6.20
2023-02-02T15:23:18.970Z,6.20
2023-02-02T15:26:41.554Z,6.20
2023-02-02T15:30:04.361Z,6.20
2023-02-02T15:33:28.533Z,6.20
2023-02-02T15:36:52.731Z,6.20
2023-02-02T15:40:16.019Z,6.20
2023-02-02T15:43:38.428Z,6.20
2023-02-02T15:47:00.778Z,6.10
2023-02-02T15:50:22.443Z,6.10
2023-02-02T15:53:48.986Z,6.10
2023-02-02T15:57:21.973Z,6.00
2023-02-02T16:00:43.614Z,6.00
2023-02-02T16:04:14.482Z,6.00
2023-02-02T16:07:36.141Z,6.00
2023-02-02T16:11:06.931Z,5.90
2023-02-02T16:14:28.969Z,6.00
2023-02-02T16:17:57.883Z,6.00
2023-02-02T16:21:23.552Z,6.00
2023-02-02T16:24:47.878Z,6.00
2023-02-02T16:28:14.167Z,6.00
2023-02-02T16:31:35.912Z,6.00
2023-02-02T16:34:57.808Z,6.00
2023-02-02T16:38:22.935Z,6.00
2023-02-02T16:41:44.741Z,6.00
2023-02-02T16:45:28.701Z,6.00
2023-02-02T16:48:57.828Z,6.00
2023-02-02T16:52:20.871Z,6.00
2023-02-02T16:55:51.045Z,6.00
2023-02-02T16:59:16.342Z,6.00
2023-02-02T17:02:39.553Z,6.00
2023-02-02T17:06:02.985Z,6.00
2023-02-02T17:09:27.169Z,6.00
2023-02-02T17:12:48.958Z,6.00
2023-02-02T17:16:12.346Z,6.00
2023-02-02T17:19:33.966Z,6.00
2023-02-02T17:22:58.651Z,6.00
2023-02-02T17:26:20.369Z,6.00
2023-02-02T17:29:42.717Z,6.00
2023-02-02T17:33:05.406Z,6.00
2023-02-02T17:36:27.032Z,5.90
2023-02-02T17:39:49.963Z,5.90
2023-02-02T17:43:11.773Z,6.00
2023-02-02T17:46:33.458Z,6.00
2023-02-02T17:49:55.106Z,6.00
2023-02-02T17:53:18.163Z,6.10
2023-02-02T17:56:41.461Z,6.10
2023-02-02T18:00:03.521Z,6.10
2023-02-02T18:03:26.407Z,6.10
2023-02-02T18:06:48.078Z,6.10
2023-02-02T18:10:10.589Z,6.10
2023-02-02T18:13:33.784Z,6.10
2023-02-02T18:16:58.134Z,6.10
2023-02-02T18:20:20.059Z,6.10
2023-02-02T18:23:41.664Z,6.10
2023-02-02T18:27:03.336Z,6.20
2023-02-02T18:30:26.561Z,6.20
2023-02-02T18:33:48.356Z,6.10
2023-02-02T18:37:11.043Z,6.10
2023-02-02T18:40:32.633Z,6.10
2023-02-02T18:43:54.722Z,6.00
2023-02-02T18:47:18.610Z,6.00
2023-02-02T18:50:40.203Z,6.00
2023-02-02T18:54:01.779Z,6.00
2023-02-02T18:57:23.357Z,6.00
2023-02-02T19:00:45.645Z,6.00
2023-02-02T19:04:08.690Z,5.90
2023-02-02T19:07:30.675Z,5.80
2023-02-02T19:10:59.854Z,5.80
2023-02-02T19:14:22.151Z,5.80
2023-02-02T19:17:51.601Z,5.80
2023-02-02T19:21:15.340Z,5.80
2023-02-02T19:24:41.718Z,5.80
2023-02-02T19:28:08.909Z,5.80
2023-02-02T19:31:30.747Z,5.80
2023-02-02T19:34:52.844Z,5.80
2023-02-02T19:38:16.777Z,5.80
2023-02-02T19:41:38.408Z,5.80
2023-02-02T19:45:00.989Z,5.80
2023-02-02T19:48:24.508Z,5.70
2023-02-02T19:51:47.415Z,5.70
2023-02-02T19:55:17.342Z,5.70
2023-02-02T19:58:39.438Z,5.70
2023-02-02T20:02:15.654Z,5.70
2023-02-02T20:05:38.023Z,5.60
2023-02-02T20:09:01.536Z,5.60
2023-02-02T20:12:28.832Z,5.50
2023-02-02T20:15:51.541Z,5.50
2023-02-02T20:19:14.984Z,5.50
2023-02-02T20:22:37.842Z,5.40
2023-02-02T20:26:01.956Z,5.40
2023-02-02T20:29:27.237Z,5.30
2023-02-02T20:32:50.926Z,5.30
2023-02-02T20:36:30.172Z,5.20
2023-02-02T20:39:54.541Z,5.20
2023-02-02T20:43:16.142Z,5.20
2023-02-02T20:46:39.119Z,5.20
2023-02-02T20:50:00.791Z,5.10
2023-02-02T20:53:22.415Z,5.00
2023-02-02T20:56:44.020Z,5.00
2023-02-02T21:00:06.437Z,5.00
2023-02-02T21:03:29.413Z,5.00
2023-02-02T21:06:51.003Z,5.00
2023-02-02T21:10:12.665Z,5.00
2023-02-02T21:13:34.375Z,5.00
2023-02-02T21:17:12.686Z,5.00
2023-02-02T21:20:37.182Z,5.10
2023-02-02T21:23:58.822Z,5.10
2023-02-02T21:27:20.510Z,5.10
2023-02-02T21:30:42.290Z,5.10
2023-02-02T21:34:03.958Z,5.10
2023-02-02T21:37:27.015Z,5.00
2023-02-02T21:40:48.618Z,5.00
2023-02-02T21:44:14.201Z,5.00
2023-02-02T21:47:36.892Z,5.00
2023-02-02T21:50:59.656Z,5.00
2023-02-02T21:54:23.745Z,5.00
2023-02-02T21:57:45.386Z,5.00
2023-02-02T22:01:17.741Z,5.00
2023-02-02T22:04:39.847Z,5.00
2023-02-02T22:08:03.125Z,5.00
2023-02-02T22:11:27.007Z,5.00
2023-02-02T22:14:49.509Z,5.00
2023-02-02T22:18:17.118Z,5.00
2023-02-02T22:21:38.803Z,5.00
2023-02-02T22:25:02.633Z,5.00
2023-02-02T22:28:27.234Z,5.00
2023-02-02T22:31:49.012Z,5.00
2023-02-02T22:35:10.682Z,5.10
2023-02-02T22:38:32.395Z,5.00
2023-02-02T22:41:54.106Z,5.00
2023-02-02T22:45:17.303Z,5.00
2023-02-02T22:48:38.941Z,5.00
2023-02-02T22:52:00.628Z,4.90
2023-02-02T22:55:22.407Z,5.00
2023-02-02T22:58:44.086Z,5.00
2023-02-02T23:02:07.140Z,5.00
2023-02-02T23:05:28.826Z,5.00
2023-02-02T23:08:50.460Z,5.10
2023-02-02T23:12:12.085Z,5.10
2023-02-02T23:15:33.865Z,5.10
2023-02-02T23:18:56.853Z,5.10
2023-02-02T23:22:18.453Z,5.20
2023-02-02T23:25:40.055Z,5.20
2023-02-02T23:29:01.667Z,5.20
2023-02-02T23:32:23.246Z,5.20
2023-02-02T23:35:46.200Z,5.20
2023-02-02T23:39:07.773Z,5.20
2023-02-02T23:42:29.343Z,5.20
2023-02-02T23:45:50.954Z,5.20
2023-02-02T23:49:12.747Z,5.20
2023-02-02T23:52:36.302Z,5.10
2023-02-02T23:55:57.985Z,5.10
2023-02-02T23:59:19.616Z,5.10
